x

South Brooks (46132) Wave Buoy

9:00am - Sat 31st Jan 2015 All times are PST. -8 hours from GMT.

  • Sig Wave height 5.9ft
  • Peak Period 13s
  • Wind
    11mph, 13mph gusts
  • Sea Temp 50°f
  • Air Temp 49°f
  • Sea Pressure 1021.6mb
  • South Brooks
  • South Brooks

More Historic Weather Station data

Upgrade to MSW Pro to gain access to the past 30 days of data for over 8000 Wavebouys and Weather Stations around the globe.

Join Pro

Comparision Forecast

View Surf forecast
   
Sat 01/31 9:00am 6ft 13s 11 13 mph 1021.6mb 50f 49f
8:00am 6ft 10s 9 11 mph 1022.5mb 50f 49f
7:00am 6ft 12s 4 7 mph 1022.6mb 50f 48f
6:00am 6.5ft 11s 7
mph
1023mb 50f 49f
5:00am 6ft 13s 4 7 mph 1023mb 50f 49f
4:00am 6ft 13s 9 11 mph 1023mb 50f 48f
3:00am 6ft 12s 7 9 mph 1023.9mb 50f 49f
2:00am 6ft 14s 9 11 mph 1024.4mb 50f 49f
1:00am 6ft 14s 7 9 mph 1024.5mb 50f 49f
12:00am 6.5ft 14s 7 9 mph 1024.7mb 50f 49f
Fri 01/30 11:00pm 6.5ft 13s 7 9 mph 1024.9mb 50f 49f
10:00pm 6.5ft 12s 9
mph
1024.4mb 50f 49f
9:00pm 6ft 8s 9 13 mph 1024.7mb 50f 49f
8:00pm 6ft 13s 2 4 mph 1024.9mb 50f 50f
7:00pm 6ft 10s 4 7 mph 1025.1mb 50f 50f
6:00pm 6ft 9s 4 7 mph 1025.3mb 50f 50f
5:00pm 6ft 14s 4 7 mph 1025.5mb 50f 50f
4:00pm 5.5ft 12s 9
mph
1025.4mb 50f 50f
3:00pm 5.5ft 11s 9 11 mph 1025.4mb 50f 50f
2:00pm 6ft 13s 11 13 mph 1025.7mb 50f 49f
1:00pm 6ft 14s 9 13 mph 1026.1mb 50f 49f
12:00pm 6ft 13s 11 13 mph 1026.4mb 50f 49f
11:00am 6ft 14s 16 20 mph 1025.6mb 50f 49f
10:00am 5.5ft 14s 18 20 mph 1025.4mb 50f 48f
9:00am 5.5ft 13s 16 20 mph 1025.1mb 50f 49f
8:00am 6ft 10s 16 18 mph 1025.3mb 50f 48f
7:00am 6ft 14s 13 16 mph 1025.5mb 50f 48f
6:00am 6ft 14s 13 16 mph 1025.5mb 50f 48f
5:00am 6ft 14s 11 13 mph 1026.1mb 50f 47f
4:00am 5.5ft 15s 11 13 mph 1025.9mb 50f 48f
3:00am 6ft 10s 11 13 mph 1026mb 50f 47f
2:00am 6ft 10s 11 13 mph 1025.8mb 50f 47f
1:00am 6.5ft 15s 13 16 mph 1025.7mb 50f 48f
12:00am 6ft 14s 13 16 mph 1026mb 50f 50f
Thu 01/29 11:00pm 6ft 11s 9 11 mph 1026.3mb 50f 50f
10:00pm 7ft 15s 11 13 mph 1025.8mb 50f 50f
9:00pm 6.5ft 15s 13 16 mph 1025.4mb 50f 50f
8:00pm 7ft 10s 9
mph
1026mb 50f 50f
7:00pm 7ft 11s 11 13 mph 1026.2mb 50f 50f
6:00pm 7ft 11s 11 13 mph 1026.1mb 50f 50f
5:00pm 7ft 10s 9 11 mph 1026.3mb 50f 50f
4:00pm 8ft 16s 11 13 mph 1026mb 50f 50f
3:00pm 7.5ft 10s 11 13 mph 1026.3mb 50f 50f
2:00pm 7ft 16s 11 13 mph 1026.3mb 50f 50f
1:00pm 7.5ft 11s 13 18 mph 1026.6mb 50f 50f
12:00pm 8ft 11s 13 18 mph 1026.9mb 50f 49f
11:00am 8ft 10s 18 22 mph 1027.3mb 50f 49f
10:00am 8ft 11s 18 22 mph 1027mb 50f 49f
9:00am 7.5ft 10s 16 18 mph 1027mb 50f 49f
8:00am 7.5ft 10s 18 22 mph 1026.6mb 50f 49f
7:00am 7ft 10s 16 20 mph 1026.8mb 50f 49f
6:00am 7.5ft 10s 18 20 mph 1026.6mb 50f 49f
5:00am 7ft 11s 18 22 mph 1026.7mb 50f 49f
4:00am 6.5ft 11s 18 22 mph 1026.5mb 50f 49f
3:00am 6ft 10s 16 18 mph 1026.9mb 50f 48f
2:00am 5.5ft 17s 13 16 mph 1027.2mb 50f 49f
1:00am 5ft 17s 16 18 mph 1027.3mb 50f 48f
12:00am 5ft 11s 9 11 mph 1027.5mb 50f 46f
Wed 01/28 11:00pm 5ft 17s 7 9 mph 1027.8mb 50f 46f
10:00pm 5ft 17s 9 13 mph 1027.6mb 50f 46f
9:00pm 5ft 17s 7 11 mph 1027.7mb 50f 48f
8:00pm 4.5ft 17s 11 13 mph 1027.2mb 50f 49f
7:00pm 4.5ft 18s 13 16 mph 1027mb 50f 48f
6:00pm 4.5ft 18s 13 18 mph 1027.1mb 50f 49f
5:00pm 4.5ft 18s 16 18 mph 1026.9mb 50f 49f
4:00pm 4.5ft 18s 13 16 mph 1027mb 50f 49f
3:00pm 4.5ft 18s 13 18 mph 1027mb 50f 49f
2:00pm 4.5ft 18s 13 18 mph 1027.1mb 50f 49f
1:00pm 4ft 18s 13 16 mph 1027.6mb 50f 49f
12:00pm 4ft 18s 13 18 mph 1028mb 50f 48f
11:00am 4ft 10s 13 16 mph 1028.2mb 50f 48f
10:00am 4.5ft 12s 11 13 mph 1027.9mb 50f 48f
9:00am 4.5ft 8s 11 13 mph 1027.5mb 50f 48f
8:00am 4.5ft 13s 9 11 mph 1027.3mb 50f 48f
7:00am 5ft 13s 7 9 mph 1027.2mb 50f 48f
6:00am 5ft 10s 4 9 mph 1026.9mb 50f 48f
5:00am 5.5ft 13s 4 7 mph 1026.6mb 50f 48f
4:00am 5.5ft 12s 7 9 mph 1026.2mb 50f 47f
3:00am 5.5ft 11s 2 4 mph 1025.9mb 50f 47f
2:00am 6ft 12s 2
mph
1025.8mb 50f 47f
1:00am 6ft 13s 2 4 mph 1025.3mb 50f 47f
12:00am 6ft 10s 4
mph
1025mb 50f 48f
Tue 01/27 11:00pm 6ft 10s 7 9 mph 1024.7mb 50f 48f
10:00pm 6ft 13s 9 11 mph 1024.5mb 50f 48f
9:00pm 6ft 14s 9 11 mph 1024.3mb 50f 48f
8:00pm 6ft 8s 11 13 mph 1023.8mb 50f 48f
7:00pm 7ft 8s 11 13 mph 1022.9mb 50f 48f